sensor_id;sensor_type;location;lat;lon;timestamp;P1;durP1;ratioP1;P2;durP2;ratioP2
46765;SDS011;32527;51.986;5.842;2022-12-18T00:02:19;86.60;;;26.30;;
46765;SDS011;32527;51.986;5.842;2022-12-18T00:04:45;68.35;;;23.98;;
46765;SDS011;32527;51.986;5.842;2022-12-18T00:07:11;74.10;;;25.17;;
46765;SDS011;32527;51.986;5.842;2022-12-18T00:09:37;73.20;;;25.50;;
46765;SDS011;32527;51.986;5.842;2022-12-18T00:12:03;81.03;;;25.70;;
46765;SDS011;32527;51.986;5.842;2022-12-18T00:14:29;65.80;;;24.65;;
46765;SDS011;32527;51.986;5.842;2022-12-18T00:16:54;77.55;;;26.50;;
46765;SDS011;32527;51.986;5.842;2022-12-18T00:19:21;70.82;;;24.73;;
46765;SDS011;32527;51.986;5.842;2022-12-18T00:21:47;64.78;;;24.85;;
46765;SDS011;32527;51.986;5.842;2022-12-18T00:24:13;72.90;;;24.08;;
46765;SDS011;32527;51.986;5.842;2022-12-18T00:26:39;66.18;;;23.83;;
46765;SDS011;32527;51.986;5.842;2022-12-18T00:29:14;64.50;;;22.02;;
46765;SDS011;32527;51.986;5.842;2022-12-18T00:31:42;62.03;;;23.23;;
46765;SDS011;32527;51.986;5.842;2022-12-18T00:34:09;74.07;;;24.15;;
46765;SDS011;32527;51.986;5.842;2022-12-18T00:36:39;71.15;;;24.55;;
46765;SDS011;32527;51.986;5.842;2022-12-18T00:39:05;57.35;;;21.10;;
46765;SDS011;32527;51.986;5.842;2022-12-18T00:41:32;66.68;;;22.73;;
46765;SDS011;32527;51.986;5.842;2022-12-18T00:44:18;60.25;;;22.95;;
46765;SDS011;32527;51.986;5.842;2022-12-18T00:46:44;64.82;;;22.73;;
46765;SDS011;32527;51.986;5.842;2022-12-18T00:49:14;65.00;;;22.35;;
46765;SDS011;32527;51.986;5.842;2022-12-18T00:51:41;59.60;;;23.00;;
46765;SDS011;32527;51.986;5.842;2022-12-18T00:54:08;56.67;;;23.95;;
46765;SDS011;32527;51.986;5.842;2022-12-18T00:56:35;67.82;;;24.15;;
46765;SDS011;32527;51.986;5.842;2022-12-18T00:59:04;56.63;;;22.48;;
46765;SDS011;32527;51.986;5.842;2022-12-18T01:01:30;61.38;;;22.42;;
46765;SDS011;32527;51.986;5.842;2022-12-18T01:03:57;61.30;;;21.58;;
46765;SDS011;32527;51.986;5.842;2022-12-18T01:06:24;54.97;;;21.80;;
46765;SDS011;32527;51.986;5.842;2022-12-18T01:08:50;58.80;;;21.38;;
46765;SDS011;32527;51.986;5.842;2022-12-18T01:11:17;55.10;;;20.92;;
46765;SDS011;32527;51.986;5.842;2022-12-18T01:13:44;58.72;;;21.88;;
46765;SDS011;32527;51.986;5.842;2022-12-18T01:16:14;56.28;;;23.02;;
46765;SDS011;32527;51.986;5.842;2022-12-18T01:18:41;56.53;;;23.42;;
46765;SDS011;32527;51.986;5.842;2022-12-18T01:21:14;60.50;;;20.85;;
46765;SDS011;32527;51.986;5.842;2022-12-18T01:23:44;62.05;;;22.70;;
46765;SDS011;32527;51.986;5.842;2022-12-18T01:26:11;55.22;;;21.65;;
46765;SDS011;32527;51.986;5.842;2022-12-18T01:28:39;52.75;;;21.40;;
46765;SDS011;32527;51.986;5.842;2022-12-18T01:31:09;50.42;;;20.25;;
46765;SDS011;32527;51.986;5.842;2022-12-18T01:33:36;55.33;;;21.58;;
46765;SDS011;32527;51.986;5.842;2022-12-18T01:36:02;57.90;;;21.67;;
46765;SDS011;32527;51.986;5.842;2022-12-18T01:38:28;45.97;;;19.08;;
46765;SDS011;32527;51.986;5.842;2022-12-18T01:40:58;48.70;;;20.30;;
46765;SDS011;32527;51.986;5.842;2022-12-18T01:43:43;44.60;;;19.88;;
46765;SDS011;32527;51.986;5.842;2022-12-18T01:46:11;48.10;;;20.30;;
46765;SDS011;32527;51.986;5.842;2022-12-18T01:48:37;51.95;;;20.10;;
46765;SDS011;32527;51.986;5.842;2022-12-18T01:51:05;45.95;;;19.70;;
46765;SDS011;32527;51.986;5.842;2022-12-18T01:53:32;49.03;;;20.90;;
46765;SDS011;32527;51.986;5.842;2022-12-18T01:55:59;58.67;;;20.05;;
46765;SDS011;32527;51.986;5.842;2022-12-18T01:58:43;50.55;;;19.58;;
46765;SDS011;32527;51.986;5.842;2022-12-18T02:01:26;55.10;;;19.42;;
46765;SDS011;32527;51.986;5.842;2022-12-18T02:03:52;47.30;;;18.63;;
46765;SDS011;32527;51.986;5.842;2022-12-18T02:06:24;40.20;;;18.65;;
46765;SDS011;32527;51.986;5.842;2022-12-18T02:14:10;55.45;;;20.63;;
46765;SDS011;32527;51.986;5.842;2022-12-18T02:28:44;40.75;;;17.55;;
46765;SDS011;32527;51.986;5.842;2022-12-18T02:31:15;44.63;;;17.77;;
46765;SDS011;32527;51.986;5.842;2022-12-18T02:33:46;44.55;;;18.73;;
46765;SDS011;32527;51.986;5.842;2022-12-18T02:36:13;45.78;;;18.10;;
46765;SDS011;32527;51.986;5.842;2022-12-18T02:38:41;52.22;;;19.75;;
46765;SDS011;32527;51.986;5.842;2022-12-18T02:41:11;59.00;;;20.08;;
46765;SDS011;32527;51.986;5.842;2022-12-18T02:43:40;43.13;;;18.13;;
46765;SDS011;32527;51.986;5.842;2022-12-18T02:46:23;38.72;;;17.60;;
46765;SDS011;32527;51.986;5.842;2022-12-18T02:48:52;38.15;;;17.23;;
46765;SDS011;32527;51.986;5.842;2022-12-18T02:51:39;48.00;;;19.45;;
46765;SDS011;32527;51.986;5.842;2022-12-18T02:54:14;45.55;;;17.05;;
46765;SDS011;32527;51.986;5.842;2022-12-18T02:56:50;40.88;;;17.90;;
46765;SDS011;32527;51.986;5.842;2022-12-18T02:59:30;40.85;;;16.95;;
46765;SDS011;32527;51.986;5.842;2022-12-18T03:05:12;46.55;;;17.20;;
46765;SDS011;32527;51.986;5.842;2022-12-18T03:07:56;43.28;;;15.85;;
46765;SDS011;32527;51.986;5.842;2022-12-18T03:10:32;41.80;;;17.25;;
46765;SDS011;32527;51.986;5.842;2022-12-18T03:13:04;43.63;;;16.33;;
46765;SDS011;32527;51.986;5.842;2022-12-18T03:15:51;44.58;;;16.27;;
46765;SDS011;32527;51.986;5.842;2022-12-18T03:18:34;44.30;;;17.45;;
46765;SDS011;32527;51.986;5.842;2022-12-18T03:21:12;46.03;;;17.20;;
46765;SDS011;32527;51.986;5.842;2022-12-18T03:23:41;40.17;;;15.25;;
46765;SDS011;32527;51.986;5.842;2022-12-18T03:26:12;42.83;;;16.40;;
46765;SDS011;32527;51.986;5.842;2022-12-18T03:29:03;37.63;;;14.80;;
46765;SDS011;32527;51.986;5.842;2022-12-18T03:31:30;40.97;;;15.40;;
46765;SDS011;32527;51.986;5.842;2022-12-18T03:33:58;42.53;;;15.35;;
46765;SDS011;32527;51.986;5.842;2022-12-18T03:36:36;33.65;;;15.48;;
46765;SDS011;32527;51.986;5.842;2022-12-18T03:39:02;45.67;;;16.52;;
46765;SDS011;32527;51.986;5.842;2022-12-18T03:44:35;38.60;;;16.40;;
46765;SDS011;32527;51.986;5.842;2022-12-18T03:52:36;38.78;;;15.73;;
46765;SDS011;32527;51.986;5.842;2022-12-18T03:55:08;36.40;;;14.57;;
46765;SDS011;32527;51.986;5.842;2022-12-18T03:57:36;36.45;;;15.35;;
46765;SDS011;32527;51.986;5.842;2022-12-18T04:00:11;40.15;;;16.27;;
46765;SDS011;32527;51.986;5.842;2022-12-18T04:02:39;34.83;;;15.20;;
46765;SDS011;32527;51.986;5.842;2022-12-18T04:05:19;30.92;;;14.27;;
46765;SDS011;32527;51.986;5.842;2022-12-18T04:07:46;33.97;;;15.77;;
46765;SDS011;32527;51.986;5.842;2022-12-18T04:10:14;38.00;;;15.13;;
46765;SDS011;32527;51.986;5.842;2022-12-18T04:12:41;34.95;;;15.35;;
46765;SDS011;32527;51.986;5.842;2022-12-18T04:15:10;33.00;;;14.23;;
46765;SDS011;32527;51.986;5.842;2022-12-18T04:17:37;36.33;;;15.80;;
46765;SDS011;32527;51.986;5.842;2022-12-18T04:20:04;35.95;;;16.08;;
46765;SDS011;32527;51.986;5.842;2022-12-18T04:22:30;35.92;;;15.20;;
46765;SDS011;32527;51.986;5.842;2022-12-18T04:24:58;34.58;;;13.23;;
46765;SDS011;32527;51.986;5.842;2022-12-18T04:27:31;41.15;;;14.50;;
46765;SDS011;32527;51.986;5.842;2022-12-18T04:29:58;33.50;;;14.73;;
46765;SDS011;32527;51.986;5.842;2022-12-18T04:32:24;30.55;;;13.30;;
46765;SDS011;32527;51.986;5.842;2022-12-18T04:34:50;32.92;;;13.35;;
46765;SDS011;32527;51.986;5.842;2022-12-18T04:37:17;34.10;;;14.10;;
46765;SDS011;32527;51.986;5.842;2022-12-18T04:39:43;31.67;;;14.75;;
46765;SDS011;32527;51.986;5.842;2022-12-18T04:42:18;32.78;;;14.20;;
46765;SDS011;32527;51.986;5.842;2022-12-18T04:44:44;33.33;;;14.02;;
46765;SDS011;32527;51.986;5.842;2022-12-18T04:47:10;33.50;;;14.52;;
46765;SDS011;32527;51.986;5.842;2022-12-18T04:49:35;35.17;;;14.13;;
46765;SDS011;32527;51.986;5.842;2022-12-18T04:52:01;34.47;;;14.85;;
46765;SDS011;32527;51.986;5.842;2022-12-18T04:54:27;31.75;;;12.90;;
46765;SDS011;32527;51.986;5.842;2022-12-18T04:56:54;29.95;;;13.77;;
46765;SDS011;32527;51.986;5.842;2022-12-18T04:59:20;30.17;;;13.05;;
46765;SDS011;32527;51.986;5.842;2022-12-18T05:01:46;35.97;;;14.13;;
46765;SDS011;32527;51.986;5.842;2022-12-18T05:04:12;32.17;;;13.63;;
46765;SDS011;32527;51.986;5.842;2022-12-18T05:06:38;32.05;;;14.15;;
46765;SDS011;32527;51.986;5.842;2022-12-18T05:09:04;29.88;;;13.15;;
46765;SDS011;32527;51.986;5.842;2022-12-18T05:11:30;29.70;;;13.95;;
46765;SDS011;32527;51.986;5.842;2022-12-18T05:13:56;24.13;;;12.35;;
46765;SDS011;32527;51.986;5.842;2022-12-18T05:16:22;31.55;;;12.55;;
46765;SDS011;32527;51.986;5.842;2022-12-18T05:18:48;27.55;;;13.55;;
46765;SDS011;32527;51.986;5.842;2022-12-18T05:21:14;31.73;;;13.32;;
46765;SDS011;32527;51.986;5.842;2022-12-18T05:23:40;33.50;;;13.23;;
46765;SDS011;32527;51.986;5.842;2022-12-18T05:26:06;32.05;;;13.65;;
46765;SDS011;32527;51.986;5.842;2022-12-18T05:28:33;34.92;;;13.93;;
46765;SDS011;32527;51.986;5.842;2022-12-18T05:31:00;31.23;;;12.32;;
46765;SDS011;32527;51.986;5.842;2022-12-18T05:33:32;27.60;;;12.57;;
46765;SDS011;32527;51.986;5.842;2022-12-18T05:36:02;31.15;;;11.55;;
46765;SDS011;32527;51.986;5.842;2022-12-18T05:38:32;27.33;;;12.57;;
46765;SDS011;32527;51.986;5.842;2022-12-18T05:40:59;27.05;;;12.40;;
46765;SDS011;32527;51.986;5.842;2022-12-18T05:43:26;28.52;;;12.63;;
46765;SDS011;32527;51.986;5.842;2022-12-18T05:45:52;25.30;;;11.95;;
46765;SDS011;32527;51.986;5.842;2022-12-18T05:48:19;29.08;;;12.38;;
46765;SDS011;32527;51.986;5.842;2022-12-18T05:50:46;28.05;;;12.30;;
46765;SDS011;32527;51.986;5.842;2022-12-18T05:53:14;33.03;;;13.43;;
46765;SDS011;32527;51.986;5.842;2022-12-18T05:55:41;23.58;;;12.05;;
46765;SDS011;32527;51.986;5.842;2022-12-18T05:58:08;32.47;;;12.88;;
46765;SDS011;32527;51.986;5.842;2022-12-18T06:00:36;26.83;;;12.48;;
46765;SDS011;32527;51.986;5.842;2022-12-18T06:03:06;31.45;;;12.50;;
46765;SDS011;32527;51.986;5.842;2022-12-18T06:05:40;25.80;;;12.57;;
46765;SDS011;32527;51.986;5.842;2022-12-18T06:08:09;23.20;;;11.10;;
46765;SDS011;32527;51.986;5.842;2022-12-18T06:10:36;29.80;;;12.65;;
46765;SDS011;32527;51.986;5.842;2022-12-18T06:13:02;26.08;;;12.00;;
46765;SDS011;32527;51.986;5.842;2022-12-18T06:15:28;32.40;;;12.57;;
46765;SDS011;32527;51.986;5.842;2022-12-18T06:17:54;28.55;;;12.05;;
46765;SDS011;32527;51.986;5.842;2022-12-18T06:20:20;23.90;;;12.38;;
46765;SDS011;32527;51.986;5.842;2022-12-18T06:22:46;22.83;;;12.43;;
46765;SDS011;32527;51.986;5.842;2022-12-18T06:25:12;27.70;;;12.85;;
46765;SDS011;32527;51.986;5.842;2022-12-18T06:27:38;30.25;;;14.20;;
46765;SDS011;32527;51.986;5.842;2022-12-18T06:30:04;22.92;;;12.43;;
46765;SDS011;32527;51.986;5.842;2022-12-18T06:32:30;32.28;;;13.85;;
46765;SDS011;32527;51.986;5.842;2022-12-18T06:34:56;26.52;;;11.98;;
46765;SDS011;32527;51.986;5.842;2022-12-18T06:37:22;23.95;;;11.95;;
46765;SDS011;32527;51.986;5.842;2022-12-18T06:39:51;29.05;;;12.18;;
46765;SDS011;32527;51.986;5.842;2022-12-18T06:42:17;27.00;;;12.45;;
46765;SDS011;32527;51.986;5.842;2022-12-18T06:44:42;24.90;;;11.52;;
46765;SDS011;32527;51.986;5.842;2022-12-18T06:47:08;27.15;;;13.13;;
46765;SDS011;32527;51.986;5.842;2022-12-18T06:49:34;28.92;;;12.15;;
46765;SDS011;32527;51.986;5.842;2022-12-18T06:52:00;30.02;;;11.93;;
46765;SDS011;32527;51.986;5.842;2022-12-18T06:54:26;30.42;;;12.57;;
46765;SDS011;32527;51.986;5.842;2022-12-18T06:56:52;23.58;;;12.40;;
46765;SDS011;32527;51.986;5.842;2022-12-18T06:59:18;27.35;;;12.95;;
46765;SDS011;32527;51.986;5.842;2022-12-18T07:01:44;26.13;;;13.38;;
46765;SDS011;32527;51.986;5.842;2022-12-18T07:04:10;26.13;;;12.20;;
46765;SDS011;32527;51.986;5.842;2022-12-18T07:06:36;27.70;;;13.50;;
46765;SDS011;32527;51.986;5.842;2022-12-18T07:09:02;27.33;;;13.05;;
46765;SDS011;32527;51.986;5.842;2022-12-18T07:11:28;30.65;;;14.23;;
46765;SDS011;32527;51.986;5.842;2022-12-18T07:13:54;29.30;;;13.32;;
46765;SDS011;32527;51.986;5.842;2022-12-18T07:16:20;25.40;;;12.05;;
46765;SDS011;32527;51.986;5.842;2022-12-18T07:18:47;28.60;;;13.85;;
46765;SDS011;32527;51.986;5.842;2022-12-18T07:21:14;27.77;;;13.30;;
46765;SDS011;32527;51.986;5.842;2022-12-18T07:23:41;28.08;;;13.05;;
46765;SDS011;32527;51.986;5.842;2022-12-18T07:26:08;24.42;;;13.00;;
46765;SDS011;32527;51.986;5.842;2022-12-18T07:28:35;24.30;;;12.80;;
46765;SDS011;32527;51.986;5.842;2022-12-18T07:31:15;25.67;;;12.35;;
46765;SDS011;32527;51.986;5.842;2022-12-18T07:33:42;25.33;;;11.75;;
46765;SDS011;32527;51.986;5.842;2022-12-18T07:36:09;24.38;;;12.27;;
46765;SDS011;32527;51.986;5.842;2022-12-18T07:38:35;32.00;;;12.98;;
46765;SDS011;32527;51.986;5.842;2022-12-18T07:41:05;26.08;;;12.90;;
46765;SDS011;32527;51.986;5.842;2022-12-18T07:43:33;31.70;;;13.25;;
46765;SDS011;32527;51.986;5.842;2022-12-18T07:45:59;25.90;;;11.90;;
46765;SDS011;32527;51.986;5.842;2022-12-18T07:48:25;28.70;;;11.32;;
46765;SDS011;32527;51.986;5.842;2022-12-18T07:50:51;24.92;;;12.57;;
46765;SDS011;32527;51.986;5.842;2022-12-18T07:53:17;24.83;;;12.00;;
46765;SDS011;32527;51.986;5.842;2022-12-18T07:55:43;20.70;;;10.45;;
46765;SDS011;32527;51.986;5.842;2022-12-18T07:58:09;24.45;;;12.40;;
46765;SDS011;32527;51.986;5.842;2022-12-18T08:00:35;21.25;;;11.65;;
46765;SDS011;32527;51.986;5.842;2022-12-18T08:03:01;25.48;;;12.07;;
46765;SDS011;32527;51.986;5.842;2022-12-18T08:05:27;23.10;;;11.13;;
46765;SDS011;32527;51.986;5.842;2022-12-18T08:07:53;22.13;;;10.90;;
46765;SDS011;32527;51.986;5.842;2022-12-18T08:10:20;22.50;;;10.80;;
46765;SDS011;32527;51.986;5.842;2022-12-18T08:12:48;28.50;;;11.85;;
46765;SDS011;32527;51.986;5.842;2022-12-18T08:15:15;23.13;;;10.93;;
46765;SDS011;32527;51.986;5.842;2022-12-18T08:17:41;24.90;;;11.80;;
46765;SDS011;32527;51.986;5.842;2022-12-18T08:20:07;25.48;;;11.45;;
46765;SDS011;32527;51.986;5.842;2022-12-18T08:22:34;21.27;;;10.75;;
46765;SDS011;32527;51.986;5.842;2022-12-18T08:25:00;25.85;;;11.70;;
46765;SDS011;32527;51.986;5.842;2022-12-18T08:27:26;26.33;;;11.60;;
46765;SDS011;32527;51.986;5.842;2022-12-18T08:29:52;24.00;;;11.30;;
46765;SDS011;32527;51.986;5.842;2022-12-18T08:32:18;20.58;;;10.13;;
46765;SDS011;32527;51.986;5.842;2022-12-18T08:34:43;26.27;;;11.52;;
46765;SDS011;32527;51.986;5.842;2022-12-18T08:37:10;22.65;;;10.10;;
46765;SDS011;32527;51.986;5.842;2022-12-18T08:39:36;19.88;;;10.35;;
46765;SDS011;32527;51.986;5.842;2022-12-18T08:42:02;20.63;;;10.30;;
46765;SDS011;32527;51.986;5.842;2022-12-18T08:44:46;24.38;;;9.98;;
46765;SDS011;32527;51.986;5.842;2022-12-18T08:47:12;22.75;;;10.27;;
46765;SDS011;32527;51.986;5.842;2022-12-18T08:49:38;24.13;;;11.80;;
46765;SDS011;32527;51.986;5.842;2022-12-18T08:52:04;21.63;;;11.40;;
46765;SDS011;32527;51.986;5.842;2022-12-18T08:54:30;25.27;;;11.02;;
46765;SDS011;32527;51.986;5.842;2022-12-18T08:56:56;23.88;;;10.30;;
46765;SDS011;32527;51.986;5.842;2022-12-18T08:59:22;19.52;;;9.50;;
46765;SDS011;32527;51.986;5.842;2022-12-18T09:01:48;21.15;;;10.30;;
46765;SDS011;32527;51.986;5.842;2022-12-18T09:04:14;17.13;;;9.85;;
46765;SDS011;32527;51.986;5.842;2022-12-18T09:06:40;19.70;;;8.38;;
46765;SDS011;32527;51.986;5.842;2022-12-18T09:09:06;27.05;;;11.68;;
46765;SDS011;32527;51.986;5.842;2022-12-18T09:11:33;20.52;;;10.20;;
46765;SDS011;32527;51.986;5.842;2022-12-18T09:13:59;24.08;;;10.02;;
46765;SDS011;32527;51.986;5.842;2022-12-18T09:16:26;19.33;;;9.55;;
46765;SDS011;32527;51.986;5.842;2022-12-18T09:18:56;21.40;;;10.57;;
46765;SDS011;32527;51.986;5.842;2022-12-18T09:21:26;22.10;;;9.68;;
46765;SDS011;32527;51.986;5.842;2022-12-18T09:23:53;19.00;;;9.50;;
46765;SDS011;32527;51.986;5.842;2022-12-18T09:26:23;17.40;;;9.27;;
46765;SDS011;32527;51.986;5.842;2022-12-18T09:28:50;19.38;;;9.57;;
46765;SDS011;32527;51.986;5.842;2022-12-18T09:31:16;18.00;;;8.75;;
46765;SDS011;32527;51.986;5.842;2022-12-18T09:33:44;17.83;;;9.48;;
46765;SDS011;32527;51.986;5.842;2022-12-18T09:36:14;15.77;;;9.50;;
46765;SDS011;32527;51.986;5.842;2022-12-18T09:38:41;16.15;;;7.85;;
46765;SDS011;32527;51.986;5.842;2022-12-18T09:44:15;13.85;;;7.45;;
46765;SDS011;32527;51.986;5.842;2022-12-18T09:47:10;14.45;;;7.75;;
46765;SDS011;32527;51.986;5.842;2022-12-18T09:49:43;17.40;;;8.50;;
46765;SDS011;32527;51.986;5.842;2022-12-18T09:52:12;16.88;;;8.60;;
46765;SDS011;32527;51.986;5.842;2022-12-18T09:54:39;18.77;;;8.05;;
46765;SDS011;32527;51.986;5.842;2022-12-18T09:57:10;14.52;;;7.97;;
46765;SDS011;32527;51.986;5.842;2022-12-18T09:59:38;18.98;;;8.60;;
46765;SDS011;32527;51.986;5.842;2022-12-18T10:02:15;16.63;;;7.57;;
46765;SDS011;32527;51.986;5.842;2022-12-18T10:05:05;17.88;;;10.48;;
46765;SDS011;32527;51.986;5.842;2022-12-18T10:13:24;19.55;;;8.88;;
46765;SDS011;32527;51.986;5.842;2022-12-18T10:20:49;20.88;;;8.82;;
46765;SDS011;32527;51.986;5.842;2022-12-18T10:26:16;15.57;;;8.68;;
46765;SDS011;32527;51.986;5.842;2022-12-18T10:28:43;22.63;;;9.95;;
46765;SDS011;32527;51.986;5.842;2022-12-18T10:31:16;16.77;;;8.48;;
46765;SDS011;32527;51.986;5.842;2022-12-18T10:33:43;16.08;;;7.63;;
46765;SDS011;32527;51.986;5.842;2022-12-18T10:36:09;16.58;;;8.25;;
46765;SDS011;32527;51.986;5.842;2022-12-18T10:38:35;16.75;;;7.45;;
46765;SDS011;32527;51.986;5.842;2022-12-18T10:41:02;20.38;;;9.00;;
46765;SDS011;32527;51.986;5.842;2022-12-18T10:43:31;17.35;;;8.55;;
46765;SDS011;32527;51.986;5.842;2022-12-18T10:48:25;15.82;;;8.60;;
46765;SDS011;32527;51.986;5.842;2022-12-18T10:50:52;18.38;;;8.77;;
46765;SDS011;32527;51.986;5.842;2022-12-18T10:53:28;13.52;;;7.57;;
46765;SDS011;32527;51.986;5.842;2022-12-18T10:55:59;14.70;;;8.05;;
46765;SDS011;32527;51.986;5.842;2022-12-18T11:01:26;12.98;;;7.57;;
46765;SDS011;32527;51.986;5.842;2022-12-18T11:06:23;13.45;;;7.70;;
46765;SDS011;32527;51.986;5.842;2022-12-18T11:09:03;21.70;;;8.23;;
46765;SDS011;32527;51.986;5.842;2022-12-18T11:11:50;15.43;;;8.35;;
46765;SDS011;32527;51.986;5.842;2022-12-18T11:14:33;17.40;;;8.15;;
46765;SDS011;32527;51.986;5.842;2022-12-18T11:17:30;16.60;;;7.95;;
46765;SDS011;32527;51.986;5.842;2022-12-18T11:20:02;16.55;;;9.38;;
46765;SDS011;32527;51.986;5.842;2022-12-18T11:22:32;19.00;;;9.43;;
46765;SDS011;32527;51.986;5.842;2022-12-18T11:25:00;17.92;;;9.02;;
46765;SDS011;32527;51.986;5.842;2022-12-18T11:27:48;21.90;;;10.07;;
46765;SDS011;32527;51.986;5.842;2022-12-18T11:30:26;18.20;;;9.27;;
46765;SDS011;32527;51.986;5.842;2022-12-18T11:32:56;18.95;;;8.98;;
46765;SDS011;32527;51.986;5.842;2022-12-18T11:38:00;16.92;;;9.15;;
46765;SDS011;32527;51.986;5.842;2022-12-18T11:40:33;16.77;;;9.00;;
46765;SDS011;32527;51.986;5.842;2022-12-18T11:43:03;18.58;;;9.00;;
46765;SDS011;32527;51.986;5.842;2022-12-18T11:50:50;15.95;;;8.63;;
46765;SDS011;32527;51.986;5.842;2022-12-18T11:53:17;16.17;;;8.75;;
46765;SDS011;32527;51.986;5.842;2022-12-18T11:58:43;16.33;;;8.98;;
46765;SDS011;32527;51.986;5.842;2022-12-18T12:03:46;19.08;;;9.10;;
46765;SDS011;32527;51.986;5.842;2022-12-18T12:09:04;18.90;;;9.82;;
46765;SDS011;32527;51.986;5.842;2022-12-18T12:14:21;17.65;;;10.60;;
46765;SDS011;32527;51.986;5.842;2022-12-18T12:40:37;21.13;;;10.85;;
46765;SDS011;32527;51.986;5.842;2022-12-18T12:45:48;17.40;;;9.93;;
46765;SDS011;32527;51.986;5.842;2022-12-18T12:51:20;18.98;;;10.02;;
46765;SDS011;32527;51.986;5.842;2022-12-18T12:53:53;16.77;;;9.10;;
46765;SDS011;32527;51.986;5.842;2022-12-18T12:56:21;16.10;;;9.70;;
46765;SDS011;32527;51.986;5.842;2022-12-18T13:04:35;18.90;;;10.00;;
46765;SDS011;32527;51.986;5.842;2022-12-18T13:07:14;18.48;;;9.27;;
46765;SDS011;32527;51.986;5.842;2022-12-18T13:15:47;21.65;;;10.48;;
46765;SDS011;32527;51.986;5.842;2022-12-18T13:18:28;26.08;;;9.98;;
46765;SDS011;32527;51.986;5.842;2022-12-18T13:23:26;21.15;;;10.73;;
46765;SDS011;32527;51.986;5.842;2022-12-18T13:28:24;21.98;;;9.98;;
46765;SDS011;32527;51.986;5.842;2022-12-18T13:31:08;18.98;;;9.95;;
46765;SDS011;32527;51.986;5.842;2022-12-18T13:36:41;20.63;;;9.13;;
46765;SDS011;32527;51.986;5.842;2022-12-18T13:41:39;21.60;;;11.10;;
46765;SDS011;32527;51.986;5.842;2022-12-18T13:44:48;19.20;;;9.57;;
46765;SDS011;32527;51.986;5.842;2022-12-18T13:47:00;21.02;;;9.88;;
46765;SDS011;32527;51.986;5.842;2022-12-18T13:52:16;18.75;;;9.43;;
46765;SDS011;32527;51.986;5.842;2022-12-18T13:54:49;17.95;;;9.45;;
46765;SDS011;32527;51.986;5.842;2022-12-18T13:59:56;23.75;;;9.90;;
46765;SDS011;32527;51.986;5.842;2022-12-18T14:02:23;22.67;;;10.93;;
46765;SDS011;32527;51.986;5.842;2022-12-18T14:04:50;17.40;;;10.25;;
46765;SDS011;32527;51.986;5.842;2022-12-18T14:07:18;17.65;;;9.45;;
46765;SDS011;32527;51.986;5.842;2022-12-18T14:09:53;21.83;;;10.38;;
46765;SDS011;32527;51.986;5.842;2022-12-18T14:12:40;19.08;;;11.50;;
46765;SDS011;32527;51.986;5.842;2022-12-18T14:18:00;21.05;;;10.85;;
46765;SDS011;32527;51.986;5.842;2022-12-18T14:20:28;19.75;;;10.15;;
46765;SDS011;32527;51.986;5.842;2022-12-18T14:22:56;23.27;;;10.55;;
46765;SDS011;32527;51.986;5.842;2022-12-18T14:25:24;20.08;;;11.05;;
46765;SDS011;32527;51.986;5.842;2022-12-18T14:27:53;20.60;;;10.82;;
46765;SDS011;32527;51.986;5.842;2022-12-18T14:30:37;19.90;;;9.77;;
46765;SDS011;32527;51.986;5.842;2022-12-18T14:33:11;20.48;;;10.32;;
46765;SDS011;32527;51.986;5.842;2022-12-18T14:35:38;22.67;;;11.10;;
46765;SDS011;32527;51.986;5.842;2022-12-18T14:38:22;21.38;;;10.13;;
46765;SDS011;32527;51.986;5.842;2022-12-18T14:41:03;21.25;;;11.02;;
46765;SDS011;32527;51.986;5.842;2022-12-18T14:43:36;21.27;;;11.23;;
46765;SDS011;32527;51.986;5.842;2022-12-18T14:46:03;23.88;;;10.85;;
46765;SDS011;32527;51.986;5.842;2022-12-18T14:48:40;20.63;;;11.48;;
46765;SDS011;32527;51.986;5.842;2022-12-18T14:54:05;23.27;;;11.05;;
46765;SDS011;32527;51.986;5.842;2022-12-18T14:56:54;20.48;;;10.90;;
46765;SDS011;32527;51.986;5.842;2022-12-18T14:59:44;22.83;;;11.05;;
46765;SDS011;32527;51.986;5.842;2022-12-18T15:04:59;24.08;;;11.65;;
46765;SDS011;32527;51.986;5.842;2022-12-18T15:07:26;19.45;;;10.38;;
46765;SDS011;32527;51.986;5.842;2022-12-18T15:10:03;18.85;;;10.35;;
46765;SDS011;32527;51.986;5.842;2022-12-18T15:12:41;26.77;;;12.02;;
46765;SDS011;32527;51.986;5.842;2022-12-18T15:17:58;26.27;;;11.13;;
46765;SDS011;32527;51.986;5.842;2022-12-18T15:20:27;20.77;;;10.80;;
46765;SDS011;32527;51.986;5.842;2022-12-18T15:22:57;20.05;;;10.63;;
46765;SDS011;32527;51.986;5.842;2022-12-18T15:27:55;25.52;;;11.98;;
46765;SDS011;32527;51.986;5.842;2022-12-18T15:30:21;25.63;;;11.02;;
46765;SDS011;32527;51.986;5.842;2022-12-18T15:32:48;22.75;;;10.63;;
46765;SDS011;32527;51.986;5.842;2022-12-18T15:37:48;23.45;;;11.82;;
46765;SDS011;32527;51.986;5.842;2022-12-18T15:40:16;23.95;;;10.75;;
46765;SDS011;32527;51.986;5.842;2022-12-18T15:42:46;27.52;;;12.30;;
46765;SDS011;32527;51.986;5.842;2022-12-18T15:45:32;24.67;;;11.73;;
46765;SDS011;32527;51.986;5.842;2022-12-18T15:47:58;25.30;;;12.48;;
46765;SDS011;32527;51.986;5.842;2022-12-18T15:50:24;26.48;;;12.80;;
46765;SDS011;32527;51.986;5.842;2022-12-18T15:52:51;22.60;;;11.25;;
46765;SDS011;32527;51.986;5.842;2022-12-18T15:55:22;22.70;;;11.95;;
46765;SDS011;32527;51.986;5.842;2022-12-18T15:58:08;25.23;;;12.20;;
46765;SDS011;32527;51.986;5.842;2022-12-18T16:00:35;24.23;;;12.13;;
46765;SDS011;32527;51.986;5.842;2022-12-18T16:03:03;27.17;;;12.57;;
46765;SDS011;32527;51.986;5.842;2022-12-18T16:05:29;24.75;;;11.85;;
46765;SDS011;32527;51.986;5.842;2022-12-18T16:07:56;28.15;;;13.15;;
46765;SDS011;32527;51.986;5.842;2022-12-18T16:10:22;21.33;;;10.90;;
46765;SDS011;32527;51.986;5.842;2022-12-18T16:12:48;27.33;;;13.90;;
46765;SDS011;32527;51.986;5.842;2022-12-18T16:15:14;27.50;;;13.25;;
46765;SDS011;32527;51.986;5.842;2022-12-18T16:17:41;28.92;;;12.60;;
46765;SDS011;32527;51.986;5.842;2022-12-18T16:20:18;22.42;;;12.55;;
46765;SDS011;32527;51.986;5.842;2022-12-18T16:22:46;23.90;;;13.23;;
46765;SDS011;32527;51.986;5.842;2022-12-18T16:25:20;27.48;;;13.00;;
46765;SDS011;32527;51.986;5.842;2022-12-18T16:27:47;29.27;;;12.07;;
46765;SDS011;32527;51.986;5.842;2022-12-18T16:30:18;25.55;;;12.27;;
46765;SDS011;32527;51.986;5.842;2022-12-18T16:32:46;27.38;;;13.02;;
46765;SDS011;32527;51.986;5.842;2022-12-18T16:35:13;27.27;;;13.52;;
46765;SDS011;32527;51.986;5.842;2022-12-18T16:37:40;29.15;;;14.57;;
46765;SDS011;32527;51.986;5.842;2022-12-18T16:40:09;26.77;;;12.65;;
46765;SDS011;32527;51.986;5.842;2022-12-18T16:42:36;25.45;;;12.57;;
46765;SDS011;32527;51.986;5.842;2022-12-18T16:45:05;26.65;;;12.70;;
46765;SDS011;32527;51.986;5.842;2022-12-18T16:47:32;27.48;;;13.10;;
46765;SDS011;32527;51.986;5.842;2022-12-18T16:49:58;29.08;;;12.93;;
46765;SDS011;32527;51.986;5.842;2022-12-18T16:52:24;33.08;;;15.00;;
46765;SDS011;32527;51.986;5.842;2022-12-18T16:54:50;32.25;;;13.77;;
46765;SDS011;32527;51.986;5.842;2022-12-18T16:57:17;25.60;;;12.95;;
46765;SDS011;32527;51.986;5.842;2022-12-18T16:59:44;27.98;;;13.63;;
46765;SDS011;32527;51.986;5.842;2022-12-18T17:02:15;29.10;;;12.70;;
46765;SDS011;32527;51.986;5.842;2022-12-18T17:04:42;30.77;;;13.27;;